sensor_id;sensor_type;location;lat;lon;timestamp;pressure;altitude;pressure_sealevel;temperature;humidity
5238;BME280;2639;49.700;7.962;2023-06-10T03:02:13;98579.78;;;13.96;100.00
5238;BME280;2639;49.700;7.962;2023-06-10T03:03:26;98582.38;;;13.96;100.00
5238;BME280;2639;49.700;7.962;2023-06-10T03:04:45;98579.00;;;13.97;100.00
5238;BME280;2639;49.700;7.962;2023-06-10T03:05:51;98576.41;;;13.97;100.00
5238;BME280;2639;49.700;7.962;2023-06-10T03:07:01;98580.78;;;13.98;100.00
5238;BME280;2639;49.700;7.962;2023-06-10T03:08:08;98575.59;;;13.98;100.00
5238;BME280;2639;49.700;7.962;2023-06-10T03:09:14;98577.47;;;14.01;100.00
5238;BME280;2639;49.700;7.962;2023-06-10T03:10:19;98575.78;;;14.01;100.00
5238;BME280;2639;49.700;7.962;2023-06-10T03:11:25;98584.34;;;14.00;100.00
5238;BME280;2639;49.700;7.962;2023-06-10T03:12:30;98579.88;;;13.98;100.00
5238;BME280;2639;49.700;7.962;2023-06-10T03:13:38;98577.19;;;13.96;100.00
5238;BME280;2639;49.700;7.962;2023-06-10T03:14:43;98575.44;;;13.95;100.00
5238;BME280;2639;49.700;7.962;2023-06-10T03:15:49;98578.81;;;13.94;100.00
5238;BME280;2639;49.700;7.962;2023-06-10T03:16:54;98582.25;;;13.95;100.00
5238;BME280;2639;49.700;7.962;2023-06-10T03:18:00;98578.81;;;13.94;100.00
5238;BME280;2639;49.700;7.962;2023-06-10T03:19:06;98573.63;;;13.94;100.00
5238;BME280;2639;49.700;7.962;2023-06-10T03:20:12;98580.59;;;13.95;100.00
5238;BME280;2639;49.700;7.962;2023-06-10T03:21:19;98575.44;;;13.95;100.00
5238;BME280;2639;49.700;7.962;2023-06-10T03:22:22;98577.19;;;13.96;100.00
5238;BME280;2639;49.700;7.962;2023-06-10T03:23:33;98581.47;;;13.96;100.00
5238;BME280;2639;49.700;7.962;2023-06-10T03:24:37;98580.50;;;13.94;100.00
5238;BME280;2639;49.700;7.962;2023-06-10T03:25:44;98582.19;;;13.93;100.00
5238;BME280;2639;49.700;7.962;2023-06-10T03:26:50;98580.41;;;13.92;100.00
5238;BME280;2639;49.700;7.962;2023-06-10T03:27:52;98582.19;;;13.93;100.00
5238;BME280;2639;49.700;7.962;2023-06-10T03:28:56;98583.78;;;13.91;100.00
5238;BME280;2639;49.700;7.962;2023-06-10T03:29:59;98582.00;;;13.90;100.00
5238;BME280;2639;49.700;7.962;2023-06-10T03:31:02;98589.84;;;13.92;100.00
5238;BME280;2639;49.700;7.962;2023-06-10T03:32:07;98578.63;;;13.91;100.00
5238;BME280;2639;49.700;7.962;2023-06-10T03:33:13;98580.41;;;13.92;100.00
5238;BME280;2639;49.700;7.962;2023-06-10T03:34:17;98585.56;;;13.92;100.00
5238;BME280;2639;49.700;7.962;2023-06-10T03:35:20;98587.16;;;13.90;100.00
5238;BME280;2639;49.700;7.962;2023-06-10T03:36:22;98592.31;;;13.90;100.00
5238;BME280;2639;49.700;7.962;2023-06-10T03:37:26;98589.75;;;13.90;100.00
5238;BME280;2639;49.700;7.962;2023-06-10T03:38:28;98586.19;;;13.88;100.00
5238;BME280;2639;49.700;7.962;2023-06-10T03:39:32;98590.38;;;13.86;100.00
5238;BME280;2639;49.700;7.962;2023-06-10T03:40:36;98583.41;;;13.85;100.00
5238;BME280;2639;49.700;7.962;2023-06-10T03:41:42;98584.34;;;13.85;100.00
5238;BME280;2639;49.700;7.962;2023-06-10T03:42:45;98586.81;;;13.84;100.00
5238;BME280;2639;49.700;7.962;2023-06-10T03:43:51;98583.34;;;13.83;100.00
5238;BME280;2639;49.700;7.962;2023-06-10T03:44:53;98587.69;;;13.84;100.00
5238;BME280;2639;49.700;7.962;2023-06-10T03:45:59;98586.81;;;13.84;100.00
5238;BME280;2639;49.700;7.962;2023-06-10T03:47:01;98588.41;;;13.82;100.00
5238;BME280;2639;49.700;7.962;2023-06-10T03:48:05;98590.88;;;13.80;100.00
5238;BME280;2639;49.700;7.962;2023-06-10T03:49:18;98594.28;;;13.79;100.00
5238;BME280;2639;49.700;7.962;2023-06-10T03:50:24;98590.81;;;13.79;100.00
5238;BME280;2639;49.700;7.962;2023-06-10T03:51:26;98590.81;;;13.79;100.00
5238;BME280;2639;49.700;7.962;2023-06-10T03:52:30;98594.19;;;13.78;100.00
5238;BME280;2639;49.700;7.962;2023-06-10T03:53:33;98595.88;;;13.77;100.00
5238;BME280;2639;49.700;7.962;2023-06-10T03:54:36;98591.59;;;13.78;100.00
5238;BME280;2639;49.700;7.962;2023-06-10T03:55:38;98596.75;;;13.78;100.00
5238;BME280;2639;49.700;7.962;2023-06-10T03:56:44;98598.56;;;13.79;100.00
5238;BME280;2639;49.700;7.962;2023-06-10T03:57:46;98596.88;;;13.79;100.00
5238;BME280;2639;49.700;7.962;2023-06-10T03:58:49;98597.75;;;13.80;100.00
5238;BME280;2639;49.700;7.962;2023-06-10T03:59:51;98593.41;;;13.79;100.00
5238;BME280;2639;49.700;7.962;2023-06-10T04:00:55;98598.47;;;13.77;100.00
5238;BME280;2639;49.700;7.962;2023-06-10T04:02:08;98598.34;;;13.76;100.00
5238;BME280;2639;49.700;7.962;2023-06-10T04:03:12;98595.78;;;13.76;100.00
5238;BME280;2639;49.700;7.962;2023-06-10T04:04:22;98608.88;;;13.79;100.00
5238;BME280;2639;49.700;7.962;2023-06-10T04:05:28;98596.97;;;13.81;100.00
5238;BME280;2639;49.700;7.962;2023-06-10T04:06:32;98600.50;;;13.83;100.00
5238;BME280;2639;49.700;7.962;2023-06-10T04:07:35;98595.53;;;13.86;100.00
5238;BME280;2639;49.700;7.962;2023-06-10T04:08:38;98594.84;;;13.88;100.00
5238;BME280;2639;49.700;7.962;2023-06-10T04:09:41;98591.53;;;13.91;100.00
5238;BME280;2639;49.700;7.962;2023-06-10T04:10:44;98589.06;;;13.93;100.00
5238;BME280;2639;49.700;7.962;2023-06-10T04:11:47;98596.09;;;13.95;100.00
5238;BME280;2639;49.700;7.962;2023-06-10T04:12:49;98596.09;;;13.95;100.00
5238;BME280;2639;49.700;7.962;2023-06-10T04:13:53;98596.09;;;13.95;100.00
5238;BME280;2639;49.700;7.962;2023-06-10T04:14:56;98596.09;;;13.95;100.00
5238;BME280;2639;49.700;7.962;2023-06-10T04:16:01;98601.25;;;13.95;100.00
5238;BME280;2639;49.700;7.962;2023-06-10T04:17:05;98596.09;;;13.95;100.00
5238;BME280;2639;49.700;7.962;2023-06-10T04:18:10;98592.59;;;13.95;100.00
5238;BME280;2639;49.700;7.962;2023-06-10T04:19:12;98596.16;;;13.97;100.00
5238;BME280;2639;49.700;7.962;2023-06-10T04:20:17;98597.84;;;13.96;100.00
5238;BME280;2639;49.700;7.962;2023-06-10T04:21:22;98590.91;;;13.95;100.00
5238;BME280;2639;49.700;7.962;2023-06-10T04:22:25;98595.28;;;13.96;100.00
5238;BME280;2639;49.700;7.962;2023-06-10T04:23:28;98592.69;;;13.96;100.00
5238;BME280;2639;49.700;7.962;2023-06-10T04:24:31;98600.53;;;13.98;100.00
5238;BME280;2639;49.700;7.962;2023-06-10T04:25:34;98599.66;;;13.97;100.00
5238;BME280;2639;49.700;7.962;2023-06-10T04:26:37;98602.31;;;13.99;100.00
5238;BME280;2639;49.700;7.962;2023-06-10T04:27:40;98601.41;;;13.98;100.00
5238;BME280;2639;49.700;7.962;2023-06-10T04:28:43;98600.59;;;13.99;100.00
5238;BME280;2639;49.700;7.962;2023-06-10T04:29:46;98602.41;;;14.00;100.00
5238;BME280;2639;49.700;7.962;2023-06-10T04:30:49;98602.41;;;14.00;100.00
5238;BME280;2639;49.700;7.962;2023-06-10T04:31:54;98604.16;;;14.01;100.00
5238;BME280;2639;49.700;7.962;2023-06-10T04:33:11;98601.59;;;14.01;100.00
5238;BME280;2639;49.700;7.962;2023-06-10T04:34:15;98601.59;;;14.01;100.00
5238;BME280;2639;49.700;7.962;2023-06-10T04:35:19;98593.94;;;14.03;100.00
5238;BME280;2639;49.700;7.962;2023-06-10T04:36:25;98595.66;;;14.02;100.00
5238;BME280;2639;49.700;7.962;2023-06-10T04:37:27;98605.16;;;14.03;100.00
5238;BME280;2639;49.700;7.962;2023-06-10T04:38:30;98600.00;;;14.03;100.00
5238;BME280;2639;49.700;7.962;2023-06-10T04:39:34;98600.81;;;14.02;100.00
5238;BME280;2639;49.700;7.962;2023-06-10T04:40:43;98599.09;;;14.03;100.00
5238;BME280;2639;49.700;7.962;2023-06-10T04:41:48;98610.31;;;14.03;100.00
5238;BME280;2639;49.700;7.962;2023-06-10T04:42:55;98606.94;;;14.04;100.00
5238;BME280;2639;49.700;7.962;2023-06-10T04:43:58;98612.13;;;14.04;100.00
5238;BME280;2639;49.700;7.962;2023-06-10T04:45:02;98601.97;;;14.07;100.00
5238;BME280;2639;49.700;7.962;2023-06-10T04:46:09;98610.06;;;14.14;100.00
5238;BME280;2639;49.700;7.962;2023-06-10T04:47:12;98609.34;;;14.16;100.00
5238;BME280;2639;49.700;7.962;2023-06-10T04:48:15;98608.81;;;14.22;100.00
5238;BME280;2639;49.700;7.962;2023-06-10T04:49:17;98610.78;;;14.26;100.00
5238;BME280;2639;49.700;7.962;2023-06-10T04:50:22;98609.25;;;14.29;100.00
5238;BME280;2639;49.700;7.962;2023-06-10T04:51:30;98605.16;;;14.33;100.00
5238;BME280;2639;49.700;7.962;2023-06-10T04:52:34;98614.88;;;14.37;100.00
5238;BME280;2639;49.700;7.962;2023-06-10T04:53:38;98608.88;;;14.38;100.00
5238;BME280;2639;49.700;7.962;2023-06-10T04:54:44;98608.28;;;14.42;100.00
5238;BME280;2639;49.700;7.962;2023-06-10T04:55:52;98614.53;;;14.46;100.00
5238;BME280;2639;49.700;7.962;2023-06-10T04:56:55;98606.94;;;14.49;100.00
5238;BME280;2639;49.700;7.962;2023-06-10T04:57:57;98607.97;;;14.52;100.00
5238;BME280;2639;49.700;7.962;2023-06-10T04:59:02;98609.97;;;14.57;100.00
5238;BME280;2639;49.700;7.962;2023-06-10T05:00:06;98610.97;;;14.59;100.00
5238;BME280;2639;49.700;7.962;2023-06-10T05:01:10;98610.34;;;14.63;100.00
5238;BME280;2639;49.700;7.962;2023-06-10T05:02:12;98601.75;;;14.64;100.00
5238;BME280;2639;49.700;7.962;2023-06-10T05:03:18;98606.31;;;14.68;100.00
5238;BME280;2639;49.700;7.962;2023-06-10T05:04:23;98608.16;;;14.70;100.00
5238;BME280;2639;49.700;7.962;2023-06-10T05:05:27;98607.44;;;14.73;100.00
5238;BME280;2639;49.700;7.962;2023-06-10T05:06:29;98601.56;;;14.76;100.00
5238;BME280;2639;49.700;7.962;2023-06-10T05:07:33;98600.03;;;14.79;100.00
5238;BME280;2639;49.700;7.962;2023-06-10T05:08:35;98603.78;;;14.84;100.00
5238;BME280;2639;49.700;7.962;2023-06-10T05:09:38;98603.16;;;14.88;100.00
5238;BME280;2639;49.700;7.962;2023-06-10T05:10:40;98596.53;;;14.93;100.00
5238;BME280;2639;49.700;7.962;2023-06-10T05:11:45;98595.06;;;14.99;100.00
5238;BME280;2639;49.700;7.962;2023-06-10T05:12:48;98591.84;;;15.03;100.00
5238;BME280;2639;49.700;7.962;2023-06-10T05:13:55;98600.75;;;15.08;100.00
5238;BME280;2639;49.700;7.962;2023-06-10T05:14:57;98606.09;;;15.11;100.00
5238;BME280;2639;49.700;7.962;2023-06-10T05:16:00;98607.25;;;15.16;100.00
5238;BME280;2639;49.700;7.962;2023-06-10T05:17:03;98604.81;;;15.19;100.00
5238;BME280;2639;49.700;7.962;2023-06-10T05:18:07;98607.56;;;15.22;100.00
5238;BME280;2639;49.700;7.962;2023-06-10T05:19:09;98610.31;;;15.25;100.00
5238;BME280;2639;49.700;7.962;2023-06-10T05:20:13;98602.81;;;15.30;100.00
5238;BME280;2639;49.700;7.962;2023-06-10T05:21:18;98605.66;;;15.34;100.00
5238;BME280;2639;49.700;7.962;2023-06-10T05:22:22;98606.69;;;15.38;100.00
5238;BME280;2639;49.700;7.962;2023-06-10T05:23:25;98601.69;;;15.41;100.00
5238;BME280;2639;49.700;7.962;2023-06-10T05:24:29;98608.88;;;15.47;100.00
5238;BME280;2639;49.700;7.962;2023-06-10T05:25:32;98604.69;;;15.49;100.00
5238;BME280;2639;49.700;7.962;2023-06-10T05:26:38;98604.81;;;15.52;100.00
5238;BME280;2639;49.700;7.962;2023-06-10T05:27:40;98605.91;;;15.55;100.00
5238;BME280;2639;49.700;7.962;2023-06-10T05:28:44;98609.50;;;15.59;100.00
5238;BME280;2639;49.700;7.962;2023-06-10T05:29:47;98614.06;;;15.63;100.00
5238;BME280;2639;49.700;7.962;2023-06-10T05:30:53;98602.97;;;15.66;100.00
5238;BME280;2639;49.700;7.962;2023-06-10T05:31:56;98602.22;;;15.68;100.00
5238;BME280;2639;49.700;7.962;2023-06-10T05:33:05;98612.59;;;15.68;100.00
5238;BME280;2639;49.700;7.962;2023-06-10T05:34:08;98612.81;;;15.71;100.00
5238;BME280;2639;49.700;7.962;2023-06-10T05:35:10;98606.94;;;15.75;100.00
5238;BME280;2639;49.700;7.962;2023-06-10T05:36:13;98606.31;;;15.80;100.00
5238;BME280;2639;49.700;7.962;2023-06-10T05:37:17;98604.84;;;15.85;100.00
5238;BME280;2639;49.700;7.962;2023-06-10T05:38:20;98607.59;;;15.88;100.00
5238;BME280;2639;49.700;7.962;2023-06-10T05:39:31;98604.53;;;15.95;100.00
5238;BME280;2639;49.700;7.962;2023-06-10T05:40:34;98609.06;;;15.99;99.96
5238;BME280;2639;49.700;7.962;2023-06-10T05:41:36;98612.75;;;16.04;99.57
5238;BME280;2639;49.700;7.962;2023-06-10T05:42:40;98609.66;;;16.11;99.79
5238;BME280;2639;49.700;7.962;2023-06-10T05:43:42;98603.00;;;16.16;99.80
5238;BME280;2639;49.700;7.962;2023-06-10T05:44:45;98610.28;;;16.24;99.45
5238;BME280;2639;49.700;7.962;2023-06-10T05:45:47;98609.75;;;16.31;99.07
5238;BME280;2639;49.700;7.962;2023-06-10T05:46:50;98604.91;;;16.37;99.38
5238;BME280;2639;49.700;7.962;2023-06-10T05:47:52;98602.63;;;16.43;98.59
5238;BME280;2639;49.700;7.962;2023-06-10T05:48:56;98606.38;;;16.50;97.88
5238;BME280;2639;49.700;7.962;2023-06-10T05:49:58;98607.50;;;16.55;98.30
5238;BME280;2639;49.700;7.962;2023-06-10T05:51:04;98611.25;;;16.61;97.76
5238;BME280;2639;49.700;7.962;2023-06-10T05:52:06;98610.47;;;16.62;97.00
5238;BME280;2639;49.700;7.962;2023-06-10T05:53:11;98610.78;;;16.69;96.57
5238;BME280;2639;49.700;7.962;2023-06-10T05:54:17;98607.66;;;16.76;96.50
5238;BME280;2639;49.700;7.962;2023-06-10T05:55:20;98613.00;;;16.79;95.69
5238;BME280;2639;49.700;7.962;2023-06-10T05:56:22;98611.59;;;16.86;95.91
5238;BME280;2639;49.700;7.962;2023-06-10T05:57:30;98605.91;;;16.93;95.93
5238;BME280;2639;49.700;7.962;2023-06-10T05:58:33;98602.78;;;17.00;94.95
5238;BME280;2639;49.700;7.962;2023-06-10T05:59:38;98602.31;;;17.09;95.34
5238;BME280;2639;49.700;7.962;2023-06-10T06:00:41;98601.69;;;17.14;94.01
5238;BME280;2639;49.700;7.962;2023-06-10T06:01:44;98608.06;;;17.21;93.96
5238;BME280;2639;49.700;7.962;2023-06-10T06:02:49;98598.94;;;17.29;94.10
5238;BME280;2639;49.700;7.962;2023-06-10T06:03:56;98603.44;;;17.33;92.81
5238;BME280;2639;49.700;7.962;2023-06-10T06:04:59;98610.84;;;17.43;92.20
5238;BME280;2639;49.700;7.962;2023-06-10T06:06:02;98610.41;;;17.54;91.95
5238;BME280;2639;49.700;7.962;2023-06-10T06:07:08;98610.03;;;17.64;93.35
5238;BME280;2639;49.700;7.962;2023-06-10T06:08:11;98607.00;;;17.74;94.34
5238;BME280;2639;49.700;7.962;2023-06-10T06:09:15;98605.69;;;17.82;94.48
5238;BME280;2639;49.700;7.962;2023-06-10T06:10:18;98605.13;;;17.90;94.08
5238;BME280;2639;49.700;7.962;2023-06-10T06:11:21;98603.72;;;17.98;93.99
5238;BME280;2639;49.700;7.962;2023-06-10T06:12:23;98609.25;;;18.05;93.62
5238;BME280;2639;49.700;7.962;2023-06-10T06:13:29;98607.56;;;18.06;89.42
5238;BME280;2639;49.700;7.962;2023-06-10T06:14:37;98605.19;;;18.12;88.37
5238;BME280;2639;49.700;7.962;2023-06-10T06:15:41;98607.09;;;18.16;87.60
5238;BME280;2639;49.700;7.962;2023-06-10T06:16:46;98596.84;;;18.19;85.76
5238;BME280;2639;49.700;7.962;2023-06-10T06:17:51;98600.53;;;18.24;83.48
5238;BME280;2639;49.700;7.962;2023-06-10T06:18:54;98599.78;;;18.27;82.30
5238;BME280;2639;49.700;7.962;2023-06-10T06:19:57;98599.91;;;18.30;81.07
5238;BME280;2639;49.700;7.962;2023-06-10T06:21:00;98588.72;;;18.33;79.38
5238;BME280;2639;49.700;7.962;2023-06-10T06:22:03;98595.97;;;18.40;78.55
5238;BME280;2639;49.700;7.962;2023-06-10T06:23:05;98595.38;;;18.47;78.38
5238;BME280;2639;49.700;7.962;2023-06-10T06:24:15;98593.16;;;18.56;77.50
5238;BME280;2639;49.700;7.962;2023-06-10T06:25:17;98596.03;;;18.62;77.60
5238;BME280;2639;49.700;7.962;2023-06-10T06:26:22;98595.38;;;18.68;76.30
5238;BME280;2639;49.700;7.962;2023-06-10T06:27:25;98590.50;;;18.76;76.11
5238;BME280;2639;49.700;7.962;2023-06-10T06:28:28;98596.88;;;18.82;75.41
5238;BME280;2639;49.700;7.962;2023-06-10T06:29:31;98593.72;;;18.91;75.02
5238;BME280;2639;49.700;7.962;2023-06-10T06:30:37;98593.25;;;19.01;74.98
5238;BME280;2639;49.700;7.962;2023-06-10T06:31:40;98593.72;;;19.13;74.35
5238;BME280;2639;49.700;7.962;2023-06-10T06:32:43;98590.75;;;19.27;73.72
5238;BME280;2639;49.700;7.962;2023-06-10T06:33:45;98596.25;;;19.34;73.05
5238;BME280;2639;49.700;7.962;2023-06-10T06:34:48;98600.91;;;19.43;73.14
5238;BME280;2639;49.700;7.962;2023-06-10T06:35:55;98597.63;;;19.49;73.05
5238;BME280;2639;49.700;7.962;2023-06-10T06:36:59;98596.16;;;19.55;72.70
5238;BME280;2639;49.700;7.962;2023-06-10T06:38:02;98595.50;;;19.61;72.26
5238;BME280;2639;49.700;7.962;2023-06-10T06:39:09;98599.19;;;19.68;72.20
5238;BME280;2639;49.700;7.962;2023-06-10T06:40:13;98599.38;;;19.71;71.86
5238;BME280;2639;49.700;7.962;2023-06-10T06:41:16;98599.56;;;19.77;72.07
5238;BME280;2639;49.700;7.962;2023-06-10T06:42:21;98599.69;;;19.80;70.68
5238;BME280;2639;49.700;7.962;2023-06-10T06:43:35;98603.25;;;19.82;72.00
5238;BME280;2639;49.700;7.962;2023-06-10T06:44:57;98603.34;;;19.85;71.49
5238;BME280;2639;49.700;7.962;2023-06-10T06:46:00;98602.63;;;19.89;70.76
5238;BME280;2639;49.700;7.962;2023-06-10T06:47:06;98606.19;;;19.91;70.56
5238;BME280;2639;49.700;7.962;2023-06-10T06:48:08;98603.66;;;19.94;70.86
5238;BME280;2639;49.700;7.962;2023-06-10T06:49:12;98603.91;;;20.01;70.68
5238;BME280;2639;49.700;7.962;2023-06-10T06:50:14;98612.75;;;20.06;70.38
5238;BME280;2639;49.700;7.962;2023-06-10T06:51:18;98605.13;;;20.12;71.27
5238;BME280;2639;49.700;7.962;2023-06-10T06:52:20;98600.84;;;20.14;70.32
5238;BME280;2639;49.700;7.962;2023-06-10T06:53:26;98601.97;;;20.21;70.51
5238;BME280;2639;49.700;7.962;2023-06-10T06:54:36;98602.97;;;20.24;70.75
5238;BME280;2639;49.700;7.962;2023-06-10T06:55:50;98598.78;;;20.29;70.05
5238;BME280;2639;49.700;7.962;2023-06-10T06:56:53;98602.50;;;20.36;70.37
5238;BME280;2639;49.700;7.962;2023-06-10T06:57:55;98591.34;;;20.42;70.66
5238;BME280;2639;49.700;7.962;2023-06-10T06:58:58;98598.47;;;20.46;70.13
5238;BME280;2639;49.700;7.962;2023-06-10T07:00:04;98595.13;;;20.50;70.38
5238;BME280;2639;49.700;7.962;2023-06-10T07:01:07;98600.56;;;20.56;70.59
5238;BME280;2639;49.700;7.962;2023-06-10T07:02:10;98601.66;;;20.63;70.10
5238;BME280;2639;49.700;7.962;2023-06-10T07:03:13;98607.00;;;20.67;69.48
5238;BME280;2639;49.700;7.962;2023-06-10T07:04:15;98600.19;;;20.71;68.93
5238;BME280;2639;49.700;7.962;2023-06-10T07:05:19;98599.47;;;20.76;69.22
5238;BME280;2639;49.700;7.962;2023-06-10T07:06:21;98603.09;;;20.81;69.53
5238;BME280;2639;49.700;7.962;2023-06-10T07:07:26;98603.31;;;20.88;68.33
5238;BME280;2639;49.700;7.962;2023-06-10T07:08:28;98609.69;;;20.96;68.27
5238;BME280;2639;49.700;7.962;2023-06-10T07:09:31;98607.25;;;21.02;67.47
5238;BME280;2639;49.700;7.962;2023-06-10T07:10:33;98603.97;;;21.09;67.36
5238;BME280;2639;49.700;7.962;2023-06-10T07:11:38;98609.41;;;21.15;66.83
5238;BME280;2639;49.700;7.962;2023-06-10T07:12:43;98606.03;;;21.19;67.41
5238;BME280;2639;49.700;7.962;2023-06-10T07:13:49;98602.72;;;21.25;67.36
5238;BME280;2639;49.700;7.962;2023-06-10T07:14:58;98602.84;;;21.30;66.44
5238;BME280;2639;49.700;7.962;2023-06-10T07:16:03;98603.78;;;21.32;66.33
5238;BME280;2639;49.700;7.962;2023-06-10T07:17:06;98596.09;;;21.36;66.29
5238;BME280;2639;49.700;7.962;2023-06-10T07:18:11;98603.28;;;21.43;66.18
5238;BME280;2639;49.700;7.962;2023-06-10T07:19:13;98601.56;;;21.44;65.95
5238;BME280;2639;49.700;7.962;2023-06-10T07:20:19;98594.66;;;21.46;65.95
5238;BME280;2639;49.700;7.962;2023-06-10T07:21:21;98599.19;;;21.52;65.58
5238;BME280;2639;49.700;7.962;2023-06-10T07:22:25;98603.63;;;21.54;65.15
5238;BME280;2639;49.700;7.962;2023-06-10T07:23:27;98608.03;;;21.57;64.98
5238;BME280;2639;49.700;7.962;2023-06-10T07:24:31;98606.38;;;21.60;64.85
5238;BME280;2639;49.700;7.962;2023-06-10T07:25:33;98602.09;;;21.62;64.64
5238;BME280;2639;49.700;7.962;2023-06-10T07:26:37;98613.59;;;21.68;64.76
5238;BME280;2639;49.700;7.962;2023-06-10T07:27:39;98605.06;;;21.75;64.95
5238;BME280;2639;49.700;7.962;2023-06-10T07:28:43;98599.97;;;21.79;63.90
5238;BME280;2639;49.700;7.962;2023-06-10T07:29:45;98609.69;;;21.85;63.69
5238;BME280;2639;49.700;7.962;2023-06-10T07:30:51;98604.66;;;21.91;64.78
5238;BME280;2639;49.700;7.962;2023-06-10T07:31:53;98603.03;;;21.96;63.99
5238;BME280;2639;49.700;7.962;2023-06-10T07:32:56;98609.28;;;22.01;64.23
5238;BME280;2639;49.700;7.962;2023-06-10T07:33:58;98601.59;;;22.08;63.96
5238;BME280;2639;49.700;7.962;2023-06-10T07:35:02;98599.06;;;22.11;63.28
5238;BME280;2639;49.700;7.962;2023-06-10T07:36:07;98595.56;;;22.10;63.00
5238;BME280;2639;49.700;7.962;2023-06-10T07:37:10;98593.06;;;22.15;63.10
5238;BME280;2639;49.700;7.962;2023-06-10T07:38:12;98596.63;;;22.17;63.48
5238;BME280;2639;49.700;7.962;2023-06-10T07:39:18;98597.50;;;22.17;62.50
5238;BME280;2639;49.700;7.962;2023-06-10T07:40:20;98596.69;;;22.20;62.33
5238;BME280;2639;49.700;7.962;2023-06-10T07:41:24;98596.78;;;22.23;62.45
5238;BME280;2639;49.700;7.962;2023-06-10T07:42:29;98603.88;;;22.27;63.02
5238;BME280;2639;49.700;7.962;2023-06-10T07:43:31;98596.97;;;22.29;62.56
5238;BME280;2639;49.700;7.962;2023-06-10T07:44:34;98595.31;;;22.33;61.99
5238;BME280;2639;49.700;7.962;2023-06-10T07:45:36;98598.00;;;22.36;62.76
5238;BME280;2639;49.700;7.962;2023-06-10T07:46:40;98598.00;;;22.36;63.24
5238;BME280;2639;49.700;7.962;2023-06-10T07:47:42;98593.72;;;22.39;63.32
5238;BME280;2639;49.700;7.962;2023-06-10T07:48:45;98596.50;;;22.45;63.23
5238;BME280;2639;49.700;7.962;2023-06-10T07:49:48;98594.03;;;22.52;61.79
5238;BME280;2639;49.700;7.962;2023-06-10T07:50:51;98593.25;;;22.54;61.81
5238;BME280;2639;49.700;7.962;2023-06-10T07:51:54;98596.78;;;22.56;62.28
5238;BME280;2639;49.700;7.962;2023-06-10T07:52:57;98596.78;;;22.58;61.23
5238;BME280;2639;49.700;7.962;2023-06-10T07:53:59;98591.66;;;22.61;61.84
5238;BME280;2639;49.700;7.962;2023-06-10T07:55:03;98590.06;;;22.67;62.51
5238;BME280;2639;49.700;7.962;2023-06-10T07:56:06;98594.50;;;22.70;61.50
5238;BME280;2639;49.700;7.962;2023-06-10T07:57:09;98590.19;;;22.74;60.82
5238;BME280;2639;49.700;7.962;2023-06-10T07:58:13;98586.88;;;22.79;60.94
5238;BME280;2639;49.700;7.962;2023-06-10T07:59:19;98591.38;;;22.86;61.28
5238;BME280;2639;49.700;7.962;2023-06-10T08:00:21;98587.97;;;22.90;61.14
5238;BME280;2639;49.700;7.962;2023-06-10T08:01:25;98588.22;;;23.00;60.83
5238;BME280;2639;49.700;7.962;2023-06-10T08:02:27;98590.06;;;23.04;61.50
5238;BME280;2639;49.700;7.962;2023-06-10T08:03:33;98598.06;;;23.10;61.74
5238;BME280;2639;49.700;7.962;2023-06-10T08:04:37;98592.06;;;23.14;61.10
5238;BME280;2639;49.700;7.962;2023-06-10T08:05:41;98587.75;;;23.18;60.07
5238;BME280;2639;49.700;7.962;2023-06-10T08:06:43;98586.94;;;23.20;59.09
5238;BME280;2639;49.700;7.962;2023-06-10T08:07:46;98587.94;;;23.27;59.07
5238;BME280;2639;49.700;7.962;2023-06-10T08:08:48;98586.25;;;23.29;58.84
5238;BME280;2639;49.700;7.962;2023-06-10T08:09:51;98590.66;;;23.31;59.34
5238;BME280;2639;49.700;7.962;2023-06-10T08:10:54;98587.28;;;23.36;59.26
5238;BME280;2639;49.700;7.962;2023-06-10T08:11:57;98590.81;;;23.38;58.96
5238;BME280;2639;49.700;7.962;2023-06-10T08:12:59;98590.88;;;23.41;58.74
5238;BME280;2639;49.700;7.962;2023-06-10T08:14:04;98594.41;;;23.43;58.97
5238;BME280;2639;49.700;7.962;2023-06-10T08:15:06;98591.81;;;23.44;58.39
5238;BME280;2639;49.700;7.962;2023-06-10T08:16:10;98580.63;;;23.53;58.45
5238;BME280;2639;49.700;7.962;2023-06-10T08:17:15;98591.28;;;23.61;58.41
5238;BME280;2639;49.700;7.962;2023-06-10T08:18:18;98592.31;;;23.67;58.93
5238;BME280;2639;49.700;7.962;2023-06-10T08:19:23;98594.09;;;23.71;58.31
5238;BME280;2639;49.700;7.962;2023-06-10T08:20:27;98588.09;;;23.76;57.74
5238;BME280;2639;49.700;7.962;2023-06-10T08:21:29;98595.19;;;23.80;58.03
5238;BME280;2639;49.700;7.962;2023-06-10T08:22:32;98590.88;;;23.83;58.00
5238;BME280;2639;49.700;7.962;2023-06-10T08:23:35;98583.97;;;23.87;58.49
5238;BME280;2639;49.700;7.962;2023-06-10T08:24:41;98588.41;;;23.91;58.56
5238;BME280;2639;49.700;7.962;2023-06-10T08:25:46;98588.47;;;23.94;57.55
5238;BME280;2639;49.700;7.962;2023-06-10T08:26:49;98595.59;;;24.01;57.64
5238;BME280;2639;49.700;7.962;2023-06-10T08:27:51;98597.50;;;24.10;56.17
5238;BME280;2639;49.700;7.962;2023-06-10T08:28:58;98594.16;;;24.19;56.17
5238;BME280;2639;49.700;7.962;2023-06-10T08:30:02;98597.81;;;24.27;56.69
5238;BME280;2639;49.700;7.962;2023-06-10T08:31:06;98586.59;;;24.35;56.33
5238;BME280;2639;49.700;7.962;2023-06-10T08:32:08;98589.34;;;24.43;55.94
5238;BME280;2639;49.700;7.962;2023-06-10T08:33:12;98585.97;;;24.50;54.87
5238;BME280;2639;49.700;7.962;2023-06-10T08:34:14;98580.00;;;24.59;54.45
5238;BME280;2639;49.700;7.962;2023-06-10T08:35:20;98584.53;;;24.68;53.76
5238;BME280;2639;49.700;7.962;2023-06-10T08:36:22;98588.13;;;24.76;53.55
5238;BME280;2639;49.700;7.962;2023-06-10T08:37:27;98584.81;;;24.86;53.77
5238;BME280;2639;49.700;7.962;2023-06-10T08:38:29;98590.13;;;24.92;54.44
5238;BME280;2639;49.700;7.962;2023-06-10T08:39:36;98587.63;;;24.98;54.64
5238;BME280;2639;49.700;7.962;2023-06-10T08:40:38;98581.53;;;24.99;54.97
5238;BME280;2639;49.700;7.962;2023-06-10T08:41:43;98583.31;;;25.02;54.88
5238;BME280;2639;49.700;7.962;2023-06-10T08:42:49;98587.78;;;25.09;54.68
5238;BME280;2639;49.700;7.962;2023-06-10T08:44:01;98583.38;;;25.07;53.96
5238;BME280;2639;49.700;7.962;2023-06-10T08:45:07;98591.25;;;25.08;54.50
5238;BME280;2639;49.700;7.962;2023-06-10T08:46:15;98586.09;;;25.14;55.49
5238;BME280;2639;49.700;7.962;2023-06-10T08:47:17;98576.53;;;25.18;54.36
5238;BME280;2639;49.700;7.962;2023-06-10T08:48:25;98586.28;;;25.27;53.37
5238;BME280;2639;49.700;7.962;2023-06-10T08:49:30;98585.53;;;25.35;53.44